Time;durP1;ratioP1;P1;durP2;ratioP2;P2;SDS_P1;SDS_P2;PMS_P1;PMS_P2;Temp;Humidity;BMP_temperature;BMP_pressure;BME280_temperature;BME280_humidity;BME280_pressure;Samples;Min_cycle;Max_cycle;Signal;HPM_P1;HPM_P2
2022/06/02 00:00:59;;;;;;;15.73;10.57;;;;;;;;;;5031392;28;20072;-58
2022/06/02 00:03:27;;;;;;;15.82;10.40;;;;;;;;;;5029824;28;20029;-61
2022/06/02 00:06:14;;;;;;;19.58;11.70;;;;;;;;;;5029565;28;20044;-61
2022/06/02 00:08:57;;;;;;;19.15;12.05;;;;;;;;;;5032048;28;20037;-54
2022/06/02 00:11:29;;;;;;;22.02;12.23;;;;;;;;;;5030320;28;20087;-56
2022/06/02 00:14:17;;;;;;;20.38;12.90;;;;;;;;;;5032148;28;20030;-59
2022/06/02 00:16:59;;;;;;;20.63;12.25;;;;;;;;;;5014849;28;20034;-57
2022/06/02 00:19:48;;;;;;;18.17;12.15;;;;;;;;;;5023823;28;20037;-60
2022/06/02 00:22:28;;;;;;;17.85;11.82;;;;;;;;;;5012099;28;20033;-57
2022/06/02 00:25:00;;;;;;;22.77;13.27;;;;;;;;;;4998694;28;20540;-61
2022/06/02 00:27:45;;;;;;;19.30;12.43;;;;;;;;;;5030200;28;20069;-56
2022/06/02 00:30:18;;;;;;;21.25;11.88;;;;;;;;;;5029730;28;20525;-57
2022/06/02 00:32:50;;;;;;;20.00;12.88;;;;;;;;;;5031730;28;20029;-53
2022/06/02 00:35:40;;;;;;;22.35;13.65;;;;;;;;;;5028903;28;20739;-57
2022/06/02 00:38:12;;;;;;;21.90;13.23;;;;;;;;;;5024355;28;20034;-57
2022/06/02 00:40:37;;;;;;;22.60;12.68;;;;;;;;;;5043698;28;20545;-57
2022/06/02 00:43:18;;;;;;;21.17;13.30;;;;;;;;;;5029459;28;20104;-57
2022/06/02 00:45:45;;;;;;;21.95;13.30;;;;;;;;;;5030915;28;20079;-58
2022/06/02 00:48:28;;;;;;;19.55;12.35;;;;;;;;;;5025547;28;20087;-58
2022/06/02 00:51:01;;;;;;;20.48;12.50;;;;;;;;;;5030574;28;20065;-62
2022/06/02 00:57:30;;;;;;;18.88;12.27;;;;;;;;;;5022653;28;20045;-59
2022/06/02 00:59:51;;;;;;;20.10;12.60;;;;;;;;;;5029433;28;20044;-56
2022/06/02 01:02:17;;;;;;;20.67;12.05;;;;;;;;;;5017850;28;20037;-59
2022/06/02 01:04:43;;;;;;;20.63;12.43;;;;;;;;;;5032028;28;20136;-56
2022/06/02 01:07:29;;;;;;;18.67;11.68;;;;;;;;;;5026427;28;20112;-59
2022/06/02 01:10:22;;;;;;;17.90;11.27;;;;;;;;;;5028705;28;20029;-62
2022/06/02 01:13:09;;;;;;;16.65;11.18;;;;;;;;;;5015412;28;20022;-57
2022/06/02 01:15:40;;;;;;;19.92;12.18;;;;;;;;;;5030513;28;20462;-58
2022/06/02 01:18:10;;;;;;;20.05;11.57;;;;;;;;;;5030767;28;20390;-58
2022/06/02 01:20:55;;;;;;;17.17;10.70;;;;;;;;;;5028825;28;20076;-58
2022/06/02 01:23:39;;;;;;;18.73;10.60;;;;;;;;;;5029305;28;20517;-58
2022/06/02 01:26:05;;;;;;;19.35;11.75;;;;;;;;;;5028632;28;20084;-58
2022/06/02 01:28:56;;;;;;;20.65;11.80;;;;;;;;;;5029615;28;20040;-58
2022/06/02 01:31:27;;;;;;;;;;;;;;;;;;5031715;28;20137;-56
2022/06/02 01:34:21;;;;;;;17.13;10.40;;;;;;;;;;5030617;28;20387;-60
2022/06/02 01:37:00;;;;;;;18.30;11.02;;;;;;;;;;5029401;28;20056;-58
2022/06/02 01:39:50;;;;;;;21.15;12.15;;;;;;;;;;5030619;28;20125;-58
2022/06/02 01:42:28;;;;;;;23.77;12.93;;;;;;;;;;5030540;28;20044;-57
2022/06/02 01:45:33;;;;;;;23.58;13.18;;;;;;;;;;5030162;28;20049;-57
2022/06/02 01:48:32;;;;;;;28.05;14.77;;;;;;;;;;5025102;28;20371;-60
2022/06/02 01:51:18;;;;;;;28.65;14.55;;;;;;;;;;5029879;28;20052;-61
2022/06/02 01:54:02;;;;;;;31.30;15.90;;;;;;;;;;5030448;28;20038;-55
2022/06/02 01:56:49;;;;;;;26.55;14.57;;;;;;;;;;5028834;28;20041;-53
2022/06/02 01:59:50;;;;;;;25.83;14.73;;;;;;;;;;5025966;28;20462;-55
2022/06/02 02:02:56;;;;;;;23.88;13.38;;;;;;;;;;4976467;28;20041;-57
2022/06/02 02:05:49;;;;;;;19.98;12.13;;;;;;;;;;5022564;28;20548;-56
2022/06/02 02:08:37;;;;;;;19.38;12.43;;;;;;;;;;5032550;28;20072;-57
2022/06/02 02:11:27;;;;;;;18.52;11.48;;;;;;;;;;5029322;28;20394;-58
2022/06/02 02:14:31;;;;;;;16.88;10.73;;;;;;;;;;5024977;28;20041;-57
2022/06/02 02:17:23;;;;;;;19.10;10.50;;;;;;;;;;4980981;28;20538;-58
2022/06/02 02:20:00;;;;;;;15.75;10.35;;;;;;;;;;5013988;28;20049;-58
2022/06/02 02:22:52;;;;;;;17.42;10.55;;;;;;;;;;5033430;28;20029;-56
2022/06/02 02:25:31;;;;;;;17.10;10.90;;;;;;;;;;5032595;28;20041;-57
2022/06/02 02:28:17;;;;;;;18.25;11.65;;;;;;;;;;5032269;28;20064;-58
2022/06/02 02:30:45;;;;;;;19.45;11.60;;;;;;;;;;5032151;28;20222;-55
2022/06/02 02:33:30;;;;;;;16.48;10.68;;;;;;;;;;5032900;28;20037;-57
2022/06/02 02:36:14;;;;;;;17.88;11.35;;;;;;;;;;5029900;28;20042;-56
2022/06/02 02:38:51;;;;;;;17.65;11.40;;;;;;;;;;5030195;28;20442;-57
2022/06/02 02:41:36;;;;;;;17.48;10.88;;;;;;;;;;5033826;28;20040;-51
2022/06/02 02:44:13;;;;;;;18.42;11.60;;;;;;;;;;5031666;28;20033;-61
2022/06/02 02:46:48;;;;;;;22.00;12.45;;;;;;;;;;5015701;28;20099;-55
2022/06/02 02:49:29;;;;;;;26.23;14.05;;;;;;;;;;5032371;28;20045;-57
2022/06/02 02:52:27;;;;;;;24.05;13.45;;;;;;;;;;5034613;28;20025;-52
2022/06/02 02:55:07;;;;;;;23.30;13.15;;;;;;;;;;5025876;28;20157;-54
2022/06/02 02:57:52;;;;;;;22.90;12.70;;;;;;;;;;5046844;28;20033;-54
2022/06/02 03:00:18;;;;;;;23.77;12.80;;;;;;;;;;5032187;28;20033;-55
2022/06/02 03:03:08;;;;;;;23.83;12.43;;;;;;;;;;5031690;28;20033;-51
2022/06/02 03:05:39;;;;;;;22.45;13.25;;;;;;;;;;5031875;28;20041;-55
2022/06/02 03:08:09;;;;;;;;;;;;;;;;;;5032315;28;20034;-57
2022/06/02 03:10:38;;;;;;;21.30;12.05;;;;;;;;;;5032659;28;19956;-53
2022/06/02 03:13:32;;;;;;;24.55;13.48;;;;;;;;;;5030732;28;20052;-59
2022/06/02 03:16:06;;;;;;;24.52;12.63;;;;;;;;;;5031328;28;20041;-58
2022/06/02 03:18:56;;;;;;;22.33;12.68;;;;;;;;;;5032608;28;20037;-55
2022/06/02 03:21:57;;;;;;;24.02;13.15;;;;;;;;;;4995749;28;20513;-55
2022/06/02 03:24:39;;;;;;;25.38;13.30;;;;;;;;;;5029310;28;20632;-51
2022/06/02 03:27:18;;;;;;;21.73;12.48;;;;;;;;;;5032172;28;20033;-58
2022/06/02 03:30:22;;;;;;;20.65;11.73;;;;;;;;;;5033517;28;20035;-57
2022/06/02 03:32:56;;;;;;;24.08;13.27;;;;;;;;;;5028923;28;20107;-57
2022/06/02 03:35:33;;;;;;;23.35;12.90;;;;;;;;;;5028332;28;20044;-56
2022/06/02 03:38:20;;;;;;;21.88;11.70;;;;;;;;;;5023158;28;20029;-55
2022/06/02 03:40:52;;;;;;;22.38;12.60;;;;;;;;;;5008424;28;20029;-56
2022/06/02 03:43:20;;;;;;;28.73;15.18;;;;;;;;;;5026721;28;20025;-56
2022/06/02 03:45:57;;;;;;;24.88;13.95;;;;;;;;;;5032604;28;20032;-58
2022/06/02 03:48:28;;;;;;;24.73;13.60;;;;;;;;;;5012489;28;20392;-57
2022/06/02 03:51:08;;;;;;;28.88;15.48;;;;;;;;;;5018294;28;20486;-55
2022/06/02 03:54:06;;;;;;;24.63;13.15;;;;;;;;;;5031691;28;20117;-54
2022/06/02 03:56:53;;;;;;;21.85;12.73;;;;;;;;;;5026639;28;20053;-57
2022/06/02 03:59:39;;;;;;;21.83;13.13;;;;;;;;;;5032126;28;20030;-57
2022/06/02 04:02:14;;;;;;;26.40;14.52;;;;;;;;;;5028682;28;20485;-59
2022/06/02 04:05:03;;;;;;;23.70;13.93;;;;;;;;;;5032583;28;20470;-57
2022/06/02 04:08:13;;;;;;;22.38;13.43;;;;;;;;;;5030137;28;20038;-54
2022/06/02 04:11:11;;;;;;;21.92;12.40;;;;;;;;;;5022392;28;20050;-57
2022/06/02 04:13:50;;;;;;;21.98;12.50;;;;;;;;;;5021860;28;20128;-55
2022/06/02 04:16:27;;;;;;;21.63;13.05;;;;;;;;;;5028654;28;20029;-56
2022/06/02 04:19:01;;;;;;;23.80;13.13;;;;;;;;;;5032837;28;20033;-56
2022/06/02 04:22:00;;;;;;;23.67;13.75;;;;;;;;;;5028454;28;20033;-55
2022/06/02 04:24:49;;;;;;;29.00;15.88;;;;;;;;;;5031943;28;20069;-57
2022/06/02 04:27:26;;;;;;;30.90;16.77;;;;;;;;;;5030241;28;20079;-57
2022/06/02 04:30:14;;;;;;;33.92;17.77;;;;;;;;;;5014441;28;20029;-56
2022/06/02 04:32:56;;;;;;;29.30;14.93;;;;;;;;;;5031851;28;20549;-55
2022/06/02 04:38:51;;;;;;;28.85;15.93;;;;;;;;;;5003872;28;20144;-59
2022/06/02 04:41:35;;;;;;;;;;;;;;;;;;5029179;28;20034;-56
2022/06/02 04:44:12;;;;;;;29.48;15.88;;;;;;;;;;5030341;28;19967;-55
2022/06/02 04:47:03;;;;;;;32.22;17.05;;;;;;;;;;5014119;28;20083;-56
2022/06/02 04:49:57;;;;;;;33.72;17.63;;;;;;;;;;5029672;28;20034;-57
2022/06/02 04:52:54;;;;;;;31.05;17.67;;;;;;;;;;5031250;28;20026;-58
2022/06/02 04:55:35;;;;;;;31.65;18.42;;;;;;;;;;5029858;28;20094;-58
2022/06/02 04:58:17;;;;;;;34.88;17.73;;;;;;;;;;5030132;28;20494;-57
2022/06/02 05:00:52;;;;;;;30.63;18.30;;;;;;;;;;5029056;28;20034;-53
2022/06/02 05:03:46;;;;;;;32.63;18.23;;;;;;;;;;5029324;28;20390;-57
2022/06/02 05:06:28;;;;;;;29.15;17.42;;;;;;;;;;5021552;28;20033;-63
2022/06/02 05:09:05;;;;;;;32.40;18.70;;;;;;;;;;5019382;28;20033;-65
2022/06/02 05:11:54;;;;;;;32.33;18.55;;;;;;;;;;5025364;28;20090;-64
2022/06/02 05:14:31;;;;;;;32.85;19.05;;;;;;;;;;5031216;28;20017;-65
2022/06/02 05:17:11;;;;;;;33.33;18.65;;;;;;;;;;5031192;28;20029;-65
2022/06/02 05:19:49;;;;;;;33.93;18.93;;;;;;;;;;5037527;28;20063;-63
2022/06/02 05:22:52;;;;;;;34.10;19.30;;;;;;;;;;5012556;28;20440;-74
2022/06/02 05:25:32;;;;;;;31.45;19.08;;;;;;;;;;5009578;28;20109;-61
2022/06/02 05:28:55;;;;;;;28.27;18.17;;;;;;;;;;5031718;28;20120;-60
2022/06/02 05:32:03;;;;;;;30.38;17.30;;;;;;;;;;4948922;28;20027;-61
2022/06/02 05:34:50;;;;;;;28.25;17.05;;;;;;;;;;4945064;29;20194;-63
2022/06/02 05:37:27;;;;;;;29.58;18.80;;;;;;;;;;5008988;28;20068;-61
2022/06/02 05:40:15;;;;;;;32.08;19.05;;;;;;;;;;5030138;28;20095;-61
2022/06/02 05:43:01;;;;;;;35.63;19.48;;;;;;;;;;5027914;28;20033;-60
2022/06/02 05:45:57;;;;;;;28.67;19.80;;;;;;;;;;5020967;28;20112;-61
2022/06/02 05:48:29;;;;;;;30.77;19.80;;;;;;;;;;5033793;28;20061;-61
2022/06/02 05:51:04;;;;;;;30.63;19.33;;;;;;;;;;5035267;28;20389;-61
2022/06/02 05:53:47;;;;;;;33.75;19.83;;;;;;;;;;5034008;28;20679;-61
2022/06/02 05:56:34;;;;;;;32.28;20.27;;;;;;;;;;5034924;28;20441;-61
2022/06/02 05:59:37;;;;;;;33.35;20.10;;;;;;;;;;5045623;28;20389;-60
2022/06/02 06:02:33;;;;;;;30.20;18.92;;;;;;;;;;5035172;28;20480;-61
2022/06/02 06:05:14;;;;;;;28.65;18.45;;;;;;;;;;5021079;28;20087;-61
2022/06/02 06:07:57;;;;;;;27.80;18.17;;;;;;;;;;5033400;28;20064;-60
2022/06/02 06:11:00;;;;;;;27.67;17.45;;;;;;;;;;5032962;28;20470;-60
2022/06/02 06:13:54;;;;;;;27.02;17.98;;;;;;;;;;5034245;28;20470;-59
2022/06/02 06:16:39;;;;;;;27.63;18.48;;;;;;;;;;5033101;28;20037;-60
2022/06/02 06:19:32;;;;;;;31.65;17.38;;;;;;;;;;5033042;28;20397;-61
2022/06/02 06:22:03;;;;;;;29.05;18.80;;;;;;;;;;5035027;28;20033;-61
2022/06/02 06:24:36;;;;;;;26.88;18.58;;;;;;;;;;5032628;28;20443;-61
2022/06/02 06:27:16;;;;;;;26.60;18.27;;;;;;;;;;5034613;28;20455;-61
2022/06/02 06:30:17;;;;;;;27.67;17.60;;;;;;;;;;5034151;28;20037;-61
2022/06/02 06:33:14;;;;;;;24.45;16.90;;;;;;;;;;5031391;28;20037;-62
2022/06/02 06:36:08;;;;;;;22.58;16.25;;;;;;;;;;5033138;28;20029;-61
2022/06/02 06:38:33;;;;;;;25.10;16.67;;;;;;;;;;5031967;28;20113;-61
2022/06/02 06:41:26;;;;;;;24.27;16.70;;;;;;;;;;5033971;28;20172;-61
2022/06/02 06:44:09;;;;;;;25.73;17.08;;;;;;;;;;5055095;28;20029;-61
2022/06/02 06:46:41;;;;;;;25.80;16.48;;;;;;;;;;5033420;28;20030;-61
2022/06/02 06:49:21;;;;;;;22.35;16.17;;;;;;;;;;5032393;28;20041;-61
2022/06/02 06:52:21;;;;;;;21.58;15.65;;;;;;;;;;5034106;28;20033;-61
2022/06/02 06:55:24;;;;;;;20.08;14.75;;;;;;;;;;5032093;28;20042;-61
2022/06/02 06:57:58;;;;;;;19.80;14.68;;;;;;;;;;5029963;28;20033;-61
2022/06/02 07:00:33;;;;;;;23.67;14.88;;;;;;;;;;5031416;28;20045;-63
2022/06/02 07:02:58;;;;;;;20.20;14.40;;;;;;;;;;5034760;28;20116;-61
2022/06/02 07:05:36;;;;;;;19.08;13.75;;;;;;;;;;5024689;28;20422;-62
2022/06/02 07:08:42;;;;;;;19.45;13.73;;;;;;;;;;5032531;28;20029;-61
2022/06/02 07:14:47;;;;;;;18.73;13.43;;;;;;;;;;5032602;28;20559;-61
2022/06/02 07:17:57;;;;;;;17.13;12.32;;;;;;;;;;5023403;28;20465;-62
2022/06/02 07:20:30;;;;;;;13.70;10.07;;;;;;;;;;5032081;28;20045;-62
2022/06/02 07:23:09;;;;;;;12.00;8.85;;;;;;;;;;5032646;28;20041;-63
2022/06/02 07:25:45;;;;;;;11.90;8.60;;;;;;;;;;5030878;28;20108;-61
2022/06/02 07:28:22;;;;;;;13.10;8.60;;;;;;;;;;5032327;28;20553;-62
2022/06/02 07:30:56;;;;;;;12.88;8.18;;;;;;;;;;5033391;28;20033;-63
2022/06/02 07:33:43;;;;;;;11.45;8.73;;;;;;;;;;5031629;28;20033;-63
2022/06/02 07:36:46;;;;;;;12.30;8.55;;;;;;;;;;5012653;28;20034;-61
2022/06/02 07:39:29;;;;;;;12.20;8.80;;;;;;;;;;5028473;28;20041;-62
2022/06/02 07:42:19;;;;;;;10.85;7.90;;;;;;;;;;5030679;28;20037;-63
2022/06/02 07:44:53;;;;;;;10.15;7.13;;;;;;;;;;5032283;28;20120;-62
2022/06/02 07:47:40;;;;;;;10.35;6.78;;;;;;;;;;5032556;28;20108;-62
2022/06/02 07:50:22;;;;;;;10.55;7.63;;;;;;;;;;5029237;28;20026;-62
2022/06/02 07:53:15;;;;;;;9.13;6.30;;;;;;;;;;5029169;28;20038;-62
2022/06/02 07:56:04;;;;;;;9.93;6.35;;;;;;;;;;5030832;28;20065;-64
2022/06/02 07:58:38;;;;;;;12.13;7.30;;;;;;;;;;5032205;28;20057;-61
2022/06/02 08:01:52;;;;;;;9.40;7.72;;;;;;;;;;5029341;28;20041;-61
2022/06/02 08:04:32;;;;;;;10.85;7.85;;;;;;;;;;4981969;28;20104;-60
2022/06/02 08:07:09;;;;;;;9.52;6.72;;;;;;;;;;5013554;28;20033;-61
2022/06/02 08:10:00;;;;;;;9.60;5.45;;;;;;;;;;5030695;28;20040;-60
2022/06/02 08:12:56;;;;;;;5.57;4.32;;;;;;;;;;5032063;28;20036;-60
2022/06/02 08:15:40;;;;;;;7.70;5.60;;;;;;;;;;5028332;28;20376;-60
2022/06/02 08:18:30;;;;;;;6.53;4.75;;;;;;;;;;5031836;28;20095;-62
2022/06/02 08:21:16;;;;;;;9.32;5.90;;;;;;;;;;5030423;28;20041;-62
2022/06/02 08:24:15;;;;;;;7.35;5.88;;;;;;;;;;5032190;28;20025;-63
2022/06/02 08:26:49;;;;;;;9.38;6.03;;;;;;;;;;5006677;28;20064;-63
2022/06/02 08:29:41;;;;;;;8.85;6.10;;;;;;;;;;5030465;28;20079;-61
2022/06/02 08:32:15;;;;;;;7.70;5.68;;;;;;;;;;5023313;28;20051;-65
2022/06/02 08:34:50;;;;;;;7.93;6.38;;;;;;;;;;5030520;28;20458;-62
2022/06/02 08:37:39;;;;;;;7.57;6.20;;;;;;;;;;5047584;28;20532;-61
2022/06/02 08:40:20;;;;;;;9.82;6.60;;;;;;;;;;5013738;28;20412;-62
2022/06/02 08:43:13;;;;;;;7.22;5.93;;;;;;;;;;5029142;28;20486;-60
2022/06/02 08:46:06;;;;;;;6.70;5.10;;;;;;;;;;5007029;28;20037;-60
2022/06/02 08:49:06;;;;;;;6.03;4.78;;;;;;;;;;5003872;28;20049;-62
2022/06/02 08:51:53;;;;;;;6.40;5.13;;;;;;;;;;5030609;28;20037;-63
2022/06/02 08:54:24;;;;;;;5.05;4.10;;;;;;;;;;5010865;28;20460;-61
2022/06/02 08:57:11;;;;;;;5.72;4.88;;;;;;;;;;5032109;28;20036;-62
2022/06/02 08:59:55;;;;;;;6.72;5.15;;;;;;;;;;5029817;28;20277;-61
2022/06/02 09:02:23;;;;;;;6.65;5.00;;;;;;;;;;5029377;28;20120;-61
2022/06/02 09:05:23;;;;;;;6.82;4.70;;;;;;;;;;5011906;28;20037;-61
2022/06/02 09:08:21;;;;;;;5.68;4.50;;;;;;;;;;4995054;28;20037;-63
2022/06/02 09:11:01;;;;;;;9.07;4.70;;;;;;;;;;5017202;28;20113;-63
2022/06/02 09:13:55;;;;;;;5.72;4.65;;;;;;;;;;5030867;28;20057;-62
2022/06/02 09:16:35;;;;;;;5.78;4.03;;;;;;;;;;5026107;28;20026;-61
2022/06/02 09:19:32;;;;;;;6.32;4.00;;;;;;;;;;5030034;28;20040;-64
2022/06/02 09:22:10;;;;;;;4.82;3.70;;;;;;;;;;4988490;28;20045;-61
2022/06/02 09:25:18;;;;;;;4.90;3.95;;;;;;;;;;5030679;28;20037;-61
2022/06/02 09:28:08;;;;;;;6.90;4.47;;;;;;;;;;5022752;28;20116;-62
2022/06/02 09:31:08;;;;;;;5.57;4.63;;;;;;;;;;5041886;28;20032;-60
2022/06/02 09:34:00;;;;;;;6.65;5.03;;;;;;;;;;4989891;28;20049;-60
2022/06/02 09:36:31;;;;;;;7.18;5.00;;;;;;;;;;5029161;28;20092;-61
2022/06/02 09:39:02;;;;;;;5.13;4.38;;;;;;;;;;5030454;28;20033;-61
2022/06/02 09:41:41;;;;;;;6.07;4.93;;;;;;;;;;5045490;28;20377;-61
2022/06/02 09:44:25;;;;;;;6.88;5.72;;;;;;;;;;5027407;28;20040;-62
2022/06/02 09:47:16;;;;;;;6.40;5.57;;;;;;;;;;5029536;28;20041;-60
2022/06/02 09:50:13;;;;;;;7.07;5.63;;;;;;;;;;5014305;28;20084;-60
2022/06/02 09:52:57;;;;;;;8.00;5.75;;;;;;;;;;5028652;28;20322;-60
2022/06/02 09:55:39;;;;;;;8.13;6.10;;;;;;;;;;5030530;28;20064;-61
2022/06/02 09:58:08;;;;;;;6.85;5.72;;;;;;;;;;5027772;28;20137;-61
2022/06/02 10:01:16;;;;;;;6.93;5.55;;;;;;;;;;5030117;28;20442;-61
2022/06/02 10:04:09;;;;;;;6.78;5.50;;;;;;;;;;5030132;28;20391;-60
2022/06/02 10:06:51;;;;;;;7.93;5.32;;;;;;;;;;5026926;28;20061;-60
2022/06/02 10:09:16;;;;;;;7.10;5.28;;;;;;;;;;5031047;28;20026;-59
2022/06/02 10:12:54;;;;;;;8.73;5.35;;;;;;;;;;5026170;28;20466;-60
2022/06/02 10:15:09;;;;;;;6.25;4.57;;;;;;;;;;5028983;28;20095;-62
2022/06/02 10:17:55;;;;;;;6.18;4.80;;;;;;;;;;5029719;28;20034;-61
2022/06/02 10:20:45;;;;;;;6.47;4.90;;;;;;;;;;5013239;28;20029;-62
2022/06/02 10:23:27;;;;;;;5.00;4.30;;;;;;;;;;5030899;28;20040;-60
2022/06/02 10:26:07;;;;;;;6.32;4.47;;;;;;;;;;5030254;28;20038;-60
2022/06/02 10:29:01;;;;;;;6.43;4.40;;;;;;;;;;5033546;28;20365;-61
2022/06/02 10:31:51;;;;;;;5.32;4.50;;;;;;;;;;5031827;28;20427;-60
2022/06/02 10:34:26;;;;;;;5.80;4.30;;;;;;;;;;5020540;28;20038;-61
2022/06/02 10:37:09;;;;;;;5.25;3.65;;;;;;;;;;5026218;28;20057;-61
2022/06/02 10:39:53;;;;;;;4.32;3.00;;;;;;;;;;5033767;28;20030;-60
2022/06/02 10:42:46;;;;;;;3.78;2.83;;;;;;;;;;5032842;28;20072;-63
2022/06/02 10:45:30;;;;;;;4.97;3.20;;;;;;;;;;5034294;28;20033;-62
2022/06/02 10:48:17;;;;;;;3.83;3.20;;;;;;;;;;5034178;28;20369;-63
2022/06/02 10:50:49;;;;;;;4.18;3.30;;;;;;;;;;5032404;28;20079;-64
2022/06/02 10:53:35;;;;;;;3.80;2.97;;;;;;;;;;5033005;28;20049;-67
2022/06/02 10:56:34;;;;;;;3.58;2.83;;;;;;;;;;5032072;28;20056;-66
2022/06/02 10:59:37;;;;;;;4.05;2.92;;;;;;;;;;5020609;28;20119;-69
2022/06/02 11:02:44;;;;;;;4.18;3.00;;;;;;;;;;5034850;28;20032;-66
2022/06/02 11:05:50;;;;;;;3.72;3.15;;;;;;;;;;5026641;28;20092;-66
2022/06/02 11:08:43;;;;;;;3.00;2.63;;;;;;;;;;4996814;28;20033;-68
2022/06/02 11:11:30;;;;;;;3.55;2.42;;;;;;;;;;5025422;28;20076;-68
2022/06/02 11:14:07;;;;;;;5.00;3.00;;;;;;;;;;5016478;28;20025;-67
2022/06/02 11:16:54;;;;;;;4.55;2.90;;;;;;;;;;5027893;28;20044;-66
2022/06/02 11:19:51;;;;;;;4.25;3.00;;;;;;;;;;5034428;28;20079;-68
2022/06/02 11:22:25;;;;;;;3.47;2.80;;;;;;;;;;5028287;28;20029;-69
2022/06/02 11:25:19;;;;;;;3.20;2.85;;;;;;;;;;5032140;28;20112;-67
2022/06/02 11:28:03;;;;;;;3.65;2.65;;;;;;;;;;4986815;28;20152;-66
2022/06/02 11:30:38;;;;;;;3.92;3.00;;;;;;;;;;5029372;28;20034;-66
2022/06/02 11:33:32;;;;;;;3.67;3.10;;;;;;;;;;5033889;28;20100;-66
2022/06/02 11:36:48;;;;;;;4.25;3.38;;;;;;;;;;5031580;28;20037;-64
2022/06/02 11:39:38;;;;;;;3.08;2.50;;;;;;;;;;4998646;28;20049;-65
2022/06/02 11:42:15;;;;;;;3.55;2.35;;;;;;;;;;5032996;28;20035;-64
2022/06/02 11:45:02;;;;;;;3.17;2.53;;;;;;;;;;5031731;28;20098;-65
2022/06/02 11:48:01;;;;;;;2.60;2.03;;;;;;;;;;5012960;28;20124;-61
2022/06/02 11:50:41;;;;;;;3.58;2.80;;;;;;;;;;5027357;28;20037;-59
2022/06/02 11:53:07;;;;;;;;;;;;;;;;;;5033468;28;20068;-60
2022/06/02 11:55:55;;;;;;;4.83;2.90;;;;;;;;;;5045398;28;19917;-63
2022/06/02 11:58:46;;;;;;;3.55;2.90;;;;;;;;;;5032444;28;20282;-61
2022/06/02 12:01:48;;;;;;;3.15;2.60;;;;;;;;;;5030962;28;20037;-65
2022/06/02 12:04:46;;;;;;;3.35;2.80;;;;;;;;;;5028386;28;20968;-62
2022/06/02 12:07:21;;;;;;;4.65;3.40;;;;;;;;;;5018580;28;20112;-64
2022/06/02 12:10:11;;;;;;;4.43;3.13;;;;;;;;;;5020596;28;20029;-63
2022/06/02 12:12:46;;;;;;;3.92;2.58;;;;;;;;;;5030554;28;20038;-67
2022/06/02 12:15:28;;;;;;;2.70;2.40;;;;;;;;;;5031156;28;20471;-63
2022/06/02 12:18:31;;;;;;;3.45;2.50;;;;;;;;;;5047988;28;20029;-64
2022/06/02 12:21:15;;;;;;;3.13;2.60;;;;;;;;;;5030870;28;20470;-62
2022/06/02 12:24:01;;;;;;;4.90;2.75;;;;;;;;;;5018112;28;20076;-64
2022/06/02 12:26:41;;;;;;;3.65;2.50;;;;;;;;;;5032097;28;20107;-62
2022/06/02 12:29:30;;;;;;;3.33;2.40;;;;;;;;;;5030823;28;20026;-65
2022/06/02 12:32:17;;;;;;;2.60;2.28;;;;;;;;;;5032196;28;20113;-65
2022/06/02 12:35:04;;;;;;;2.85;2.20;;;;;;;;;;5024889;28;20037;-66
2022/06/02 12:37:41;;;;;;;3.22;2.00;;;;;;;;;;5026805;28;20071;-60
2022/06/02 12:40:26;;;;;;;2.50;2.10;;;;;;;;;;5026179;28;20034;-62
2022/06/02 12:43:12;;;;;;;3.05;2.00;;;;;;;;;;5029670;28;20040;-65
2022/06/02 12:46:15;;;;;;;2.40;2.10;;;;;;;;;;5030890;28;20029;-63
2022/06/02 12:49:12;;;;;;;2.53;2.00;;;;;;;;;;5011508;28;20114;-64
2022/06/02 12:51:56;;;;;;;4.60;2.20;;;;;;;;;;5018553;28;20044;-64
2022/06/02 12:55:06;;;;;;;2.88;2.20;;;;;;;;;;5032277;28;20021;-64
2022/06/02 12:57:34;;;;;;;;;;;;;;;;;;4969156;28;20039;-62
2022/06/02 13:00:18;;;;;;;2.97;1.90;;;;;;;;;;5023485;28;19924;-63
2022/06/02 13:03:21;;;;;;;2.15;1.95;;;;;;;;;;5031336;28;20076;-66
2022/06/02 13:06:23;;;;;;;33.15;4.88;;;;;;;;;;5027940;28;20030;-62
2022/06/02 13:09:07;;;;;;;3.30;2.38;;;;;;;;;;5012990;28;20079;-62
2022/06/02 13:11:46;;;;;;;2.78;2.30;;;;;;;;;;5028080;28;20045;-63
2022/06/02 13:14:39;;;;;;;2.33;2.00;;;;;;;;;;5028380;28;20037;-62
2022/06/02 13:17:13;;;;;;;3.67;1.90;;;;;;;;;;5028311;28;20041;-63
2022/06/02 13:20:01;;;;;;;3.33;2.08;;;;;;;;;;5014666;28;20045;-63
2022/06/02 13:23:04;;;;;;;2.78;2.10;;;;;;;;;;5021888;28;20489;-61
2022/06/02 13:26:27;;;;;;;2.63;1.85;;;;;;;;;;5012683;28;20029;-60
2022/06/02 13:29:04;;;;;;;2.42;2.10;;;;;;;;;;4958580;28;20436;-62
2022/06/02 13:31:52;;;;;;;4.85;2.08;;;;;;;;;;4964456;28;20034;-61
2022/06/02 13:34:29;;;;;;;2.53;1.73;;;;;;;;;;5012934;28;20041;-63
2022/06/02 13:37:23;;;;;;;2.90;1.90;;;;;;;;;;5025259;28;20034;-64
2022/06/02 13:40:27;;;;;;;2.22;1.88;;;;;;;;;;5007758;28;20248;-63
2022/06/02 13:43:05;;;;;;;2.05;1.60;;;;;;;;;;5005177;28;20057;-63
2022/06/02 13:45:49;;;;;;;3.75;2.00;;;;;;;;;;5029938;28;20072;-64
2022/06/02 13:48:19;;;;;;;2.80;2.00;;;;;;;;;;5030751;28;20029;-63
2022/06/02 13:51:03;;;;;;;1.90;1.70;;;;;;;;;;5027247;28;20322;-65
2022/06/02 14:00:08;;;;;;;2.60;1.60;;;;;;;;;;5013336;28;20533;-62
2022/06/02 14:03:07;;;;;;;2.13;1.63;;;;;;;;;;5027101;28;20052;-63
2022/06/02 14:05:54;;;;;;;2.25;1.80;;;;;;;;;;5031643;28;20127;-64
2022/06/02 14:08:38;;;;;;;3.33;1.88;;;;;;;;;;5032392;28;20046;-63
2022/06/02 14:11:21;;;;;;;4.00;1.88;;;;;;;;;;5015346;28;20134;-62
2022/06/02 14:14:10;;;;;;;4.03;1.70;;;;;;;;;;5030487;28;20044;-65
2022/06/02 14:16:47;;;;;;;2.90;1.65;;;;;;;;;;5032476;28;20453;-66
2022/06/02 14:20:05;;;;;;;5.68;1.70;;;;;;;;;;5046885;28;20148;-65
2022/06/02 14:22:57;;;;;;;3.35;1.92;;;;;;;;;;4990916;28;20048;-65
2022/06/02 14:25:40;;;;;;;2.15;1.50;;;;;;;;;;5032443;28;20072;-65
2022/06/02 14:28:30;;;;;;;1.70;1.40;;;;;;;;;;5015109;28;20049;-64
2022/06/02 14:31:11;;;;;;;2.72;1.50;;;;;;;;;;5034525;28;20084;-64
2022/06/02 14:33:39;;;;;;;1.65;1.40;;;;;;;;;;5032253;28;20044;-63
2022/06/02 14:36:23;;;;;;;3.35;1.70;;;;;;;;;;5018463;28;20037;-65
2022/06/02 14:39:12;;;;;;;1.70;1.55;;;;;;;;;;5030724;28;20266;-62
2022/06/02 14:42:12;;;;;;;1.60;1.50;;;;;;;;;;4996459;28;20128;-63
2022/06/02 14:45:02;;;;;;;2.08;1.50;;;;;;;;;;5033236;28;20382;-62
2022/06/02 14:47:43;;;;;;;2.15;1.40;;;;;;;;;;5033543;28;20038;-61
2022/06/02 14:50:36;;;;;;;2.28;1.40;;;;;;;;;;5046057;28;20473;-63
2022/06/02 14:53:50;;;;;;;3.40;1.60;;;;;;;;;;5033697;28;20052;-63
2022/06/02 14:56:46;;;;;;;2.35;1.40;;;;;;;;;;5014887;28;20063;-57
2022/06/02 14:59:25;;;;;;;2.20;1.60;;;;;;;;;;5026779;28;20030;-53
2022/06/02 15:02:26;;;;;;;1.50;1.40;;;;;;;;;;5032222;28;20545;-57
2022/06/02 15:05:19;;;;;;;1.70;1.30;;;;;;;;;;5029425;28;20087;-57
2022/06/02 15:07:45;;;;;;;2.88;1.40;;;;;;;;;;5027306;28;20516;-56
2022/06/02 15:10:40;;;;;;;3.70;1.83;;;;;;;;;;5014446;28;20112;-55
2022/06/02 15:13:28;;;;;;;1.95;1.60;;;;;;;;;;5019066;28;20034;-57
2022/06/02 15:16:14;;;;;;;2.10;1.60;;;;;;;;;;5032737;28;20033;-55
2022/06/02 15:18:58;;;;;;;3.60;2.10;;;;;;;;;;5027487;28;20034;-56
2022/06/02 15:21:47;;;;;;;2.13;1.80;;;;;;;;;;5033946;28;20032;-56
2022/06/02 15:24:37;;;;;;;1.60;1.40;;;;;;;;;;5034180;28;20033;-54
2022/06/02 15:27:30;;;;;;;2.10;1.57;;;;;;;;;;5034047;28;20030;-55
2022/06/02 15:30:00;;;;;;;1.88;1.63;;;;;;;;;;5033503;28;20040;-57
2022/06/02 15:32:55;;;;;;;1.60;1.50;;;;;;;;;;5032675;28;20041;-56
2022/06/02 15:35:29;;;;;;;2.13;1.70;;;;;;;;;;4957081;28;20044;-57
2022/06/02 15:38:07;;;;;;;3.80;1.70;;;;;;;;;;5026822;28;20069;-60
2022/06/02 15:41:12;;;;;;;2.67;1.90;;;;;;;;;;5031261;28;20029;-60
2022/06/02 15:43:55;;;;;;;2.55;1.55;;;;;;;;;;5029500;28;20029;-61
2022/06/02 15:46:42;;;;;;;2.70;1.50;;;;;;;;;;5032608;28;20377;-60
2022/06/02 15:49:44;;;;;;;2.35;1.50;;;;;;;;;;5032776;28;20037;-61
2022/06/02 15:52:55;;;;;;;2.65;1.50;;;;;;;;;;5033227;28;20052;-60
2022/06/02 15:55:36;;;;;;;1.92;1.30;;;;;;;;;;5031852;28;20492;-61
2022/06/02 15:58:04;;;;;;;1.42;1.30;;;;;;;;;;5033259;28;20061;-60
2022/06/02 16:01:06;;;;;;;1.80;1.40;;;;;;;;;;5031324;28;20033;-61
2022/06/02 16:03:48;;;;;;;1.70;1.60;;;;;;;;;;5022481;28;20033;-60
2022/06/02 16:06:38;;;;;;;1.70;1.60;;;;;;;;;;5025889;28;20563;-60
2022/06/02 16:12:36;;;;;;;1.65;1.55;;;;;;;;;;5013341;28;20096;-60
2022/06/02 16:15:35;;;;;;;2.30;1.85;;;;;;;;;;5032656;28;20099;-60
2022/06/02 16:18:03;;;;;;;1.73;1.40;;;;;;;;;;5046391;28;20048;-60
2022/06/02 16:21:09;;;;;;;4.40;1.60;;;;;;;;;;5032966;28;20378;-61
2022/06/02 16:23:40;;;;;;;2.20;1.75;;;;;;;;;;5032685;28;20048;-61
2022/06/02 16:26:30;;;;;;;2.20;1.85;;;;;;;;;;5046585;28;20790;-61
2022/06/02 16:29:08;;;;;;;2.13;1.60;;;;;;;;;;5022010;28;20073;-60
2022/06/02 16:31:53;;;;;;;3.00;1.80;;;;;;;;;;5030800;28;20083;-60
2022/06/02 16:34:25;;;;;;;3.20;2.00;;;;;;;;;;5031271;28;20446;-61
2022/06/02 16:37:14;;;;;;;1.70;1.60;;;;;;;;;;5025720;28;20065;-61
2022/06/02 16:40:01;;;;;;;3.30;2.10;;;;;;;;;;5020062;28;20037;-61
2022/06/02 16:42:40;;;;;;;2.58;1.70;;;;;;;;;;5033690;28;20037;-61